Aigen Im Ennstal, Austria

7:05 AM CEST on August 28, 2015 (GMT +0200)
Stein an der Enns | | Change Station
CLOSE
Current Station
Personal Weather Station
Location: Stein an der Enns, STEIERMARK
Elevation: 2192 ft
Nearby Weather Stations

Elev 2192 ft 47.44 °N, 13.94 °E | Updated 4 minutes ago

Fog
Fog
55.1 °F
Feels Like 55.1 °F
N
0.4
Wind Variable Wind from SE
Gusts 1.1 mph

Today
High -- | Low -- °F
--% Chance of Precip.
Yesterday
High -- | Low -- °F
Precip. -- in
6:16 AM 7:52 PM
Waxing Gibbous, 96% visible
Pressure 30.12 in
Visibility 18.6 miles
Clouds Few 30000 ft
Dew Point 49 °F
Humidity 79%
Rainfall 0.00 in
Snow Depth Not available.
UV 0 out of 12
Pollen Not available.
Air Quality Not available.
Flu Activity Not available.
METAR LOXZ 280450Z VRB01KT 30KM MIFG FEW300CI 12/11 Q1020 RMK FEW
Pressure 30.12 in
Visibility 18.6 miles
Clouds Few 30000 ft
Dew Point 49 °F
Humidity 79%
Rainfall 0.00 in
Snow Depth Not available.
UV 0 out of 12
Pollen Not available.
Air Quality Not available.
Flu Activity Not available.
METAR LOXZ 280450Z VRB01KT 30KM MIFG FEW300CI 12/11 Q1020 RMK FEW

10-Day Weather Forecast

×

Almanac

Astronomy

Aug. 28, 2015 Rise Set
Actual Time
Civil Twilight
Nautical Twilight
Astronomical Twilight
Moon
Length of Visible Light
Length of Day
Tomorrow will be .
, % of the Moon is Illuminated

Today's Extremes

Country Highs Country Lows

Community

WunderPhotos

Upload Photos

1,850,338 photos uploaded!

WunderBlogs® & News

Nearby

Air Quality

  Air Quality AQ Index Pollutant
Not available.

Snow Depth

Station Depth Elevation

Earthquake Activity

City Distance Mag. Time & Date
Minimum magnitude displayed is 2.5.

Coastal Water Temperatures

Place Temperature

Stations

Nearby Weather Stations

Station Location Temp. Windchill Dew Point Humidity Wind Precip. Elev Updated Type